sensor_id;sensor_type;location;lat;lon;timestamp;temperature;humidity
24207;DHT22;12351;52.284;9.160;2023-03-03T00:00:20;0.70;99.90
24207;DHT22;12351;52.284;9.160;2023-03-03T00:03:09;0.70;99.90
24207;DHT22;12351;52.284;9.160;2023-03-03T00:05:58;0.70;99.90
24207;DHT22;12351;52.284;9.160;2023-03-03T00:08:48;0.80;99.90
24207;DHT22;12351;52.284;9.160;2023-03-03T00:11:37;0.70;99.90
24207;DHT22;12351;52.284;9.160;2023-03-03T00:14:28;0.60;99.90
24207;DHT22;12351;52.284;9.160;2023-03-03T00:22:54;0.70;99.90
24207;DHT22;12351;52.284;9.160;2023-03-03T00:25:45;0.60;99.90
24207;DHT22;12351;52.284;9.160;2023-03-03T00:40:02;0.60;99.90
24207;DHT22;12351;52.284;9.160;2023-03-03T00:42:51;0.50;99.90
24207;DHT22;12351;52.284;9.160;2023-03-03T00:51:25;0.40;99.90
24207;DHT22;12351;52.284;9.160;2023-03-03T00:54:18;0.30;99.90
24207;DHT22;12351;52.284;9.160;2023-03-03T00:57:06;0.40;99.90
24207;DHT22;12351;52.284;9.160;2023-03-03T00:59:57;0.40;99.90
24207;DHT22;12351;52.284;9.160;2023-03-03T01:02:48;0.40;99.90
24207;DHT22;12351;52.284;9.160;2023-03-03T01:05:38;0.40;99.90
24207;DHT22;12351;52.284;9.160;2023-03-03T01:08:28;0.30;99.90
24207;DHT22;12351;52.284;9.160;2023-03-03T01:11:20;0.30;99.90
24207;DHT22;12351;52.284;9.160;2023-03-03T01:14:09;0.20;99.90
24207;DHT22;12351;52.284;9.160;2023-03-03T01:16:59;0.10;99.90
24207;DHT22;12351;52.284;9.160;2023-03-03T01:19:48;0.10;99.90
24207;DHT22;12351;52.284;9.160;2023-03-03T01:22:39;0.20;99.90
24207;DHT22;12351;52.284;9.160;2023-03-03T01:25:28;0.30;99.90
24207;DHT22;12351;52.284;9.160;2023-03-03T01:28:17;0.20;99.90
24207;DHT22;12351;52.284;9.160;2023-03-03T01:31:08;0.20;99.90
24207;DHT22;12351;52.284;9.160;2023-03-03T01:34:00;0.20;99.90
24207;DHT22;12351;52.284;9.160;2023-03-03T01:36:49;0.40;99.90
24207;DHT22;12351;52.284;9.160;2023-03-03T01:39:37;0.30;99.90
24207;DHT22;12351;52.284;9.160;2023-03-03T01:42:27;0.30;99.90
24207;DHT22;12351;52.284;9.160;2023-03-03T01:48:09;-0.10;99.90
24207;DHT22;12351;52.284;9.160;2023-03-03T01:51:00;-0.10;99.90
24207;DHT22;12351;52.284;9.160;2023-03-03T01:53:50;-0.10;99.90
24207;DHT22;12351;52.284;9.160;2023-03-03T01:56:40;0.10;99.90
24207;DHT22;12351;52.284;9.160;2023-03-03T01:59:33;0.00;99.90
24207;DHT22;12351;52.284;9.160;2023-03-03T02:02:20;0.00;99.90
24207;DHT22;12351;52.284;9.160;2023-03-03T02:05:10;-0.10;99.90
24207;DHT22;12351;52.284;9.160;2023-03-03T02:08:00;-0.20;99.90
24207;DHT22;12351;52.284;9.160;2023-03-03T02:10:49;-0.10;99.90
24207;DHT22;12351;52.284;9.160;2023-03-03T02:13:39;-0.10;99.90
24207;DHT22;12351;52.284;9.160;2023-03-03T02:16:27;-0.10;99.90
24207;DHT22;12351;52.284;9.160;2023-03-03T02:19:19;-0.30;99.90
24207;DHT22;12351;52.284;9.160;2023-03-03T02:22:06;-0.10;99.90
24207;DHT22;12351;52.284;9.160;2023-03-03T02:24:58;-0.20;99.90
24207;DHT22;12351;52.284;9.160;2023-03-03T02:27:46;-0.30;99.90
24207;DHT22;12351;52.284;9.160;2023-03-03T02:30:39;-0.10;99.90
24207;DHT22;12351;52.284;9.160;2023-03-03T02:33:28;-0.10;99.90
24207;DHT22;12351;52.284;9.160;2023-03-03T02:36:20;-0.10;99.90
24207;DHT22;12351;52.284;9.160;2023-03-03T02:44:49;-0.20;99.90
24207;DHT22;12351;52.284;9.160;2023-03-03T02:47:41;-0.30;99.90
24207;DHT22;12351;52.284;9.160;2023-03-03T02:50:29;-0.20;99.90
24207;DHT22;12351;52.284;9.160;2023-03-03T02:53:19;-0.20;99.90
24207;DHT22;12351;52.284;9.160;2023-03-03T02:56:09;-0.10;99.90
24207;DHT22;12351;52.284;9.160;2023-03-03T02:59:00;-0.20;99.90
24207;DHT22;12351;52.284;9.160;2023-03-03T03:01:49;-0.10;99.90
24207;DHT22;12351;52.284;9.160;2023-03-03T03:04:39;-0.20;99.90
24207;DHT22;12351;52.284;9.160;2023-03-03T03:07:30;-0.10;99.90
24207;DHT22;12351;52.284;9.160;2023-03-03T03:10:21;-0.10;99.90
24207;DHT22;12351;52.284;9.160;2023-03-03T03:13:08;-0.20;99.90
24207;DHT22;12351;52.284;9.160;2023-03-03T03:15:59;-0.20;99.90
24207;DHT22;12351;52.284;9.160;2023-03-03T03:18:51;-0.20;99.90
24207;DHT22;12351;52.284;9.160;2023-03-03T03:21:41;-0.20;99.90
24207;DHT22;12351;52.284;9.160;2023-03-03T03:24:31;-0.20;99.90
24207;DHT22;12351;52.284;9.160;2023-03-03T03:27:23;-0.20;99.90
24207;DHT22;12351;52.284;9.160;2023-03-03T03:30:14;-0.30;99.90
24207;DHT22;12351;52.284;9.160;2023-03-03T03:33:04;-0.40;99.90
24207;DHT22;12351;52.284;9.160;2023-03-03T03:35:54;-0.30;99.90
24207;DHT22;12351;52.284;9.160;2023-03-03T03:38:45;-0.20;99.90
24207;DHT22;12351;52.284;9.160;2023-03-03T03:41:36;-0.30;99.90
24207;DHT22;12351;52.284;9.160;2023-03-03T03:44:27;-0.30;99.90
24207;DHT22;12351;52.284;9.160;2023-03-03T03:47:17;-0.20;99.90
24207;DHT22;12351;52.284;9.160;2023-03-03T03:50:05;-0.20;99.90
24207;DHT22;12351;52.284;9.160;2023-03-03T03:52:54;-0.10;99.90
24207;DHT22;12351;52.284;9.160;2023-03-03T03:55:43;-0.10;99.90
24207;DHT22;12351;52.284;9.160;2023-03-03T03:58:36;-0.20;99.90
24207;DHT22;12351;52.284;9.160;2023-03-03T04:01:26;-0.30;99.90
24207;DHT22;12351;52.284;9.160;2023-03-03T04:04:15;-0.20;99.90
24207;DHT22;12351;52.284;9.160;2023-03-03T04:07:07;-0.20;99.90
24207;DHT22;12351;52.284;9.160;2023-03-03T04:09:56;-0.30;99.90
24207;DHT22;12351;52.284;9.160;2023-03-03T04:12:45;-0.20;99.90
24207;DHT22;12351;52.284;9.160;2023-03-03T04:15:34;-0.20;99.90
24207;DHT22;12351;52.284;9.160;2023-03-03T04:18:24;-0.30;99.90
24207;DHT22;12351;52.284;9.160;2023-03-03T04:21:14;-0.30;99.90
24207;DHT22;12351;52.284;9.160;2023-03-03T04:24:06;-0.40;99.90
24207;DHT22;12351;52.284;9.160;2023-03-03T04:26:57;-0.30;99.90
24207;DHT22;12351;52.284;9.160;2023-03-03T04:29:46;-0.40;99.90
24207;DHT22;12351;52.284;9.160;2023-03-03T04:32:34;-0.30;99.90
24207;DHT22;12351;52.284;9.160;2023-03-03T04:35:23;-0.30;99.90
24207;DHT22;12351;52.284;9.160;2023-03-03T04:38:15;-0.40;99.90
24207;DHT22;12351;52.284;9.160;2023-03-03T04:41:04;-0.30;99.90
24207;DHT22;12351;52.284;9.160;2023-03-03T04:43:56;-0.40;99.90
24207;DHT22;12351;52.284;9.160;2023-03-03T04:46:45;-0.40;99.90
24207;DHT22;12351;52.284;9.160;2023-03-03T04:49:34;-0.40;99.90
24207;DHT22;12351;52.284;9.160;2023-03-03T04:52:26;-0.30;99.90
24207;DHT22;12351;52.284;9.160;2023-03-03T04:55:14;-0.30;99.90
24207;DHT22;12351;52.284;9.160;2023-03-03T04:58:05;-0.30;99.90
24207;DHT22;12351;52.284;9.160;2023-03-03T05:00:57;-0.40;99.90
24207;DHT22;12351;52.284;9.160;2023-03-03T05:03:48;-0.30;99.90
24207;DHT22;12351;52.284;9.160;2023-03-03T05:06:39;-0.40;99.90
24207;DHT22;12351;52.284;9.160;2023-03-03T05:09:29;-0.40;99.90
24207;DHT22;12351;52.284;9.160;2023-03-03T05:12:20;-0.30;99.90
24207;DHT22;12351;52.284;9.160;2023-03-03T05:15:09;-0.30;99.90
24207;DHT22;12351;52.284;9.160;2023-03-03T05:18:01;-0.30;99.90
24207;DHT22;12351;52.284;9.160;2023-03-03T05:20:55;-0.30;99.90
24207;DHT22;12351;52.284;9.160;2023-03-03T05:23:45;-0.20;99.90
24207;DHT22;12351;52.284;9.160;2023-03-03T05:26:34;-0.30;99.90
24207;DHT22;12351;52.284;9.160;2023-03-03T05:29:22;-0.30;99.90
24207;DHT22;12351;52.284;9.160;2023-03-03T05:32:14;-0.30;99.90
24207;DHT22;12351;52.284;9.160;2023-03-03T05:35:06;-0.30;99.90
24207;DHT22;12351;52.284;9.160;2023-03-03T05:37:57;-0.20;99.90
24207;DHT22;12351;52.284;9.160;2023-03-03T05:40:47;-0.20;99.90
24207;DHT22;12351;52.284;9.160;2023-03-03T05:43:39;-0.20;99.90
24207;DHT22;12351;52.284;9.160;2023-03-03T05:46:31;-0.10;99.90
24207;DHT22;12351;52.284;9.160;2023-03-03T05:49:22;-0.20;99.90
24207;DHT22;12351;52.284;9.160;2023-03-03T05:52:10;-0.10;99.90
24207;DHT22;12351;52.284;9.160;2023-03-03T05:55:01;-0.10;99.90
24207;DHT22;12351;52.284;9.160;2023-03-03T05:57:52;-0.10;99.90
24207;DHT22;12351;52.284;9.160;2023-03-03T06:00:42;-0.10;99.90
24207;DHT22;12351;52.284;9.160;2023-03-03T06:03:31;-0.10;99.90
24207;DHT22;12351;52.284;9.160;2023-03-03T06:06:20;-0.10;99.90
24207;DHT22;12351;52.284;9.160;2023-03-03T06:09:11;-0.20;99.90
24207;DHT22;12351;52.284;9.160;2023-03-03T06:12:01;-0.20;99.90
24207;DHT22;12351;52.284;9.160;2023-03-03T06:14:52;-0.10;99.90
24207;DHT22;12351;52.284;9.160;2023-03-03T06:17:43;-0.10;99.90
24207;DHT22;12351;52.284;9.160;2023-03-03T06:20:33;-0.10;99.90
24207;DHT22;12351;52.284;9.160;2023-03-03T06:23:21;0.00;99.90
24207;DHT22;12351;52.284;9.160;2023-03-03T06:26:15;0.00;99.90
24207;DHT22;12351;52.284;9.160;2023-03-03T06:29:03;0.00;99.90
24207;DHT22;12351;52.284;9.160;2023-03-03T06:31:56;0.00;99.90
24207;DHT22;12351;52.284;9.160;2023-03-03T06:34:46;0.10;99.90
24207;DHT22;12351;52.284;9.160;2023-03-03T06:37:36;0.00;99.90
24207;DHT22;12351;52.284;9.160;2023-03-03T06:40:25;0.10;99.90
24207;DHT22;12351;52.284;9.160;2023-03-03T06:43:14;0.00;99.90
24207;DHT22;12351;52.284;9.160;2023-03-03T06:46:05;0.00;99.90
24207;DHT22;12351;52.284;9.160;2023-03-03T06:48:59;0.00;99.90
24207;DHT22;12351;52.284;9.160;2023-03-03T06:51:45;0.00;99.90
24207;DHT22;12351;52.284;9.160;2023-03-03T06:54:31;-0.10;99.90
24207;DHT22;12351;52.284;9.160;2023-03-03T06:57:22;-0.10;99.90
24207;DHT22;12351;52.284;9.160;2023-03-03T07:00:11;0.00;99.90
24207;DHT22;12351;52.284;9.160;2023-03-03T07:02:59;-0.10;99.90
24207;DHT22;12351;52.284;9.160;2023-03-03T07:05:46;-0.10;99.90
24207;DHT22;12351;52.284;9.160;2023-03-03T07:08:33;0.00;99.90
24207;DHT22;12351;52.284;9.160;2023-03-03T07:11:22;0.10;99.90
24207;DHT22;12351;52.284;9.160;2023-03-03T07:14:13;0.00;99.90
24207;DHT22;12351;52.284;9.160;2023-03-03T07:17:00;0.10;99.90
24207;DHT22;12351;52.284;9.160;2023-03-03T07:19:49;0.10;99.90
24207;DHT22;12351;52.284;9.160;2023-03-03T07:22:35;0.10;99.90
24207;DHT22;12351;52.284;9.160;2023-03-03T07:31:03;0.10;99.90
24207;DHT22;12351;52.284;9.160;2023-03-03T07:33:49;0.20;99.90
24207;DHT22;12351;52.284;9.160;2023-03-03T07:36:36;0.30;99.90
24207;DHT22;12351;52.284;9.160;2023-03-03T07:39:26;0.20;99.90
24207;DHT22;12351;52.284;9.160;2023-03-03T07:44:54;0.30;99.90
24207;DHT22;12351;52.284;9.160;2023-03-03T07:47:42;0.30;99.90
24207;DHT22;12351;52.284;9.160;2023-03-03T07:50:29;0.30;99.90
24207;DHT22;12351;52.284;9.160;2023-03-03T07:53:23;0.30;99.90
24207;DHT22;12351;52.284;9.160;2023-03-03T07:58:56;0.40;99.90
24207;DHT22;12351;52.284;9.160;2023-03-03T08:01:44;0.40;99.90
24207;DHT22;12351;52.284;9.160;2023-03-03T08:07:22;0.40;99.90
24207;DHT22;12351;52.284;9.160;2023-03-03T08:13:01;0.50;99.90
24207;DHT22;12351;52.284;9.160;2023-03-03T08:15:51;0.50;99.90
24207;DHT22;12351;52.284;9.160;2023-03-03T08:21:28;0.70;99.90
24207;DHT22;12351;52.284;9.160;2023-03-03T08:24:16;0.70;99.90
24207;DHT22;12351;52.284;9.160;2023-03-03T08:27:02;0.80;99.90
24207;DHT22;12351;52.284;9.160;2023-03-03T08:29:49;0.80;99.90
24207;DHT22;12351;52.284;9.160;2023-03-03T08:32:35;0.80;99.90
24207;DHT22;12351;52.284;9.160;2023-03-03T08:35:22;0.80;99.90
24207;DHT22;12351;52.284;9.160;2023-03-03T08:38:10;0.80;99.90
24207;DHT22;12351;52.284;9.160;2023-03-03T08:40:56;0.90;99.90
24207;DHT22;12351;52.284;9.160;2023-03-03T08:43:43;0.90;99.90
24207;DHT22;12351;52.284;9.160;2023-03-03T08:46:29;1.00;99.90
24207;DHT22;12351;52.284;9.160;2023-03-03T08:49:16;1.00;99.90
24207;DHT22;12351;52.284;9.160;2023-03-03T08:52:03;0.90;99.90
24207;DHT22;12351;52.284;9.160;2023-03-03T08:54:49;0.90;99.90
24207;DHT22;12351;52.284;9.160;2023-03-03T08:57:36;0.80;99.90
24207;DHT22;12351;52.284;9.160;2023-03-03T09:00:24;0.90;99.90
24207;DHT22;12351;52.284;9.160;2023-03-03T09:03:10;0.90;99.90
24207;DHT22;12351;52.284;9.160;2023-03-03T09:05:57;0.90;99.90
24207;DHT22;12351;52.284;9.160;2023-03-03T09:11:34;0.90;99.90
24207;DHT22;12351;52.284;9.160;2023-03-03T09:14:21;0.80;99.90
24207;DHT22;12351;52.284;9.160;2023-03-03T09:19:59;0.90;99.90
24207;DHT22;12351;52.284;9.160;2023-03-03T09:22:47;0.80;99.90
24207;DHT22;12351;52.284;9.160;2023-03-03T09:25:35;1.00;99.90
24207;DHT22;12351;52.284;9.160;2023-03-03T09:28:25;1.10;99.90
24207;DHT22;12351;52.284;9.160;2023-03-03T09:34:02;1.30;99.90
24207;DHT22;12351;52.284;9.160;2023-03-03T09:36:51;1.30;99.90
24207;DHT22;12351;52.284;9.160;2023-03-03T09:39:38;1.30;99.90
24207;DHT22;12351;52.284;9.160;2023-03-03T09:56:29;1.20;99.90
24207;DHT22;12351;52.284;9.160;2023-03-03T10:10:39;1.60;99.90
24207;DHT22;12351;52.284;9.160;2023-03-03T10:18:50;1.50;99.90
24207;DHT22;12351;52.284;9.160;2023-03-03T10:21:38;1.60;99.90
24207;DHT22;12351;52.284;9.160;2023-03-03T10:24:26;1.70;99.90
24207;DHT22;12351;52.284;9.160;2023-03-03T10:30:10;1.70;99.90
24207;DHT22;12351;52.284;9.160;2023-03-03T10:38:39;1.70;99.90
24207;DHT22;12351;52.284;9.160;2023-03-03T10:56:04;2.00;99.90
24207;DHT22;12351;52.284;9.160;2023-03-03T11:12:20;2.20;99.90
24207;DHT22;12351;52.284;9.160;2023-03-03T11:17:57;2.30;99.90
24207;DHT22;12351;52.284;9.160;2023-03-03T11:20:46;2.60;99.90
24207;DHT22;12351;52.284;9.160;2023-03-03T11:32:10;2.40;99.90
24207;DHT22;12351;52.284;9.160;2023-03-03T11:40:24;2.50;99.90
24207;DHT22;12351;52.284;9.160;2023-03-03T11:45:53;2.60;99.90
24207;DHT22;12351;52.284;9.160;2023-03-03T11:48:44;2.70;99.90
24207;DHT22;12351;52.284;9.160;2023-03-03T12:11:17;3.10;83.00
24207;DHT22;12351;52.284;9.160;2023-03-03T12:22:41;3.20;66.00
24207;DHT22;12351;52.284;9.160;2023-03-03T12:25:35;3.30;79.40
24207;DHT22;12351;52.284;9.160;2023-03-03T12:28:24;3.30;41.80
24207;DHT22;12351;52.284;9.160;2023-03-03T12:34:09;3.50;42.40
24207;DHT22;12351;52.284;9.160;2023-03-03T12:39:49;3.50;37.60
24207;DHT22;12351;52.284;9.160;2023-03-03T12:42:40;3.60;30.30
24207;DHT22;12351;52.284;9.160;2023-03-03T12:48:22;3.60;1.00
24207;DHT22;12351;52.284;9.160;2023-03-03T12:56:54;3.90;1.00
24207;DHT22;12351;52.284;9.160;2023-03-03T13:02:38;4.00;10.60
24207;DHT22;12351;52.284;9.160;2023-03-03T13:08:18;4.10;1.00
24207;DHT22;12351;52.284;9.160;2023-03-03T13:16:52;3.90;1.00
24207;DHT22;12351;52.284;9.160;2023-03-03T13:19:43;4.00;1.00
24207;DHT22;12351;52.284;9.160;2023-03-03T13:28:06;4.10;1.00
24207;DHT22;12351;52.284;9.160;2023-03-03T13:30:56;4.20;1.00
24207;DHT22;12351;52.284;9.160;2023-03-03T13:33:51;4.20;1.00
24207;DHT22;12351;52.284;9.160;2023-03-03T13:36:40;4.10;1.00
24207;DHT22;12351;52.284;9.160;2023-03-03T13:39:30;3.90;1.00
24207;DHT22;12351;52.284;9.160;2023-03-03T13:56:40;3.70;1.00
24207;DHT22;12351;52.284;9.160;2023-03-03T14:13:29;3.70;1.00
24207;DHT22;12351;52.284;9.160;2023-03-03T14:27:34;3.80;1.00
24207;DHT22;12351;52.284;9.160;2023-03-03T14:30:28;3.70;1.00
24207;DHT22;12351;52.284;9.160;2023-03-03T14:33:20;3.70;1.00
24207;DHT22;12351;52.284;9.160;2023-03-03T14:36:10;3.70;1.00
24207;DHT22;12351;52.284;9.160;2023-03-03T14:39:00;3.60;1.00
24207;DHT22;12351;52.284;9.160;2023-03-03T14:41:48;3.60;1.00
24207;DHT22;12351;52.284;9.160;2023-03-03T14:47:31;3.70;1.00
24207;DHT22;12351;52.284;9.160;2023-03-03T15:01:46;3.50;1.00
24207;DHT22;12351;52.284;9.160;2023-03-03T15:04:37;3.50;1.00
24207;DHT22;12351;52.284;9.160;2023-03-03T15:07:30;3.50;1.00
24207;DHT22;12351;52.284;9.160;2023-03-03T15:16:01;3.80;1.00
24207;DHT22;12351;52.284;9.160;2023-03-03T15:19:05;3.80;1.00
24207;DHT22;12351;52.284;9.160;2023-03-03T15:24:38;3.70;1.00
24207;DHT22;12351;52.284;9.160;2023-03-03T15:27:28;3.60;1.00
24207;DHT22;12351;52.284;9.160;2023-03-03T15:33:13;3.60;1.00
24207;DHT22;12351;52.284;9.160;2023-03-03T15:36:01;3.60;1.00
24207;DHT22;12351;52.284;9.160;2023-03-03T15:38:54;3.70;1.00
24207;DHT22;12351;52.284;9.160;2023-03-03T15:44:37;3.70;1.00
24207;DHT22;12351;52.284;9.160;2023-03-03T16:01:42;3.80;1.00
24207;DHT22;12351;52.284;9.160;2023-03-03T16:04:33;3.80;1.00
24207;DHT22;12351;52.284;9.160;2023-03-03T16:24:27;3.70;1.00
24207;DHT22;12351;52.284;9.160;2023-03-03T16:30:09;3.50;1.00
24207;DHT22;12351;52.284;9.160;2023-03-03T16:32:59;3.50;1.00
24207;DHT22;12351;52.284;9.160;2023-03-03T16:35:48;3.50;1.00
24207;DHT22;12351;52.284;9.160;2023-03-03T16:38:39;3.40;1.00
24207;DHT22;12351;52.284;9.160;2023-03-03T16:47:15;3.20;33.30
24207;DHT22;12351;52.284;9.160;2023-03-03T16:50:07;3.10;52.10
24207;DHT22;12351;52.284;9.160;2023-03-03T16:53:02;3.00;62.30
24207;DHT22;12351;52.284;9.160;2023-03-03T16:55:49;3.00;62.90
24207;DHT22;12351;52.284;9.160;2023-03-03T17:01:30;2.80;95.90
24207;DHT22;12351;52.284;9.160;2023-03-03T17:12:53;2.70;99.90
24207;DHT22;12351;52.284;9.160;2023-03-03T17:21:24;2.70;99.90
24207;DHT22;12351;52.284;9.160;2023-03-03T17:27:06;2.70;99.90
24207;DHT22;12351;52.284;9.160;2023-03-03T17:38:17;2.80;99.90
24207;DHT22;12351;52.284;9.160;2023-03-03T17:46:49;2.80;99.90
24207;DHT22;12351;52.284;9.160;2023-03-03T17:52:36;2.90;99.90
24207;DHT22;12351;52.284;9.160;2023-03-03T17:55:27;2.90;99.90
24207;DHT22;12351;52.284;9.160;2023-03-03T18:15:26;3.00;99.90
24207;DHT22;12351;52.284;9.160;2023-03-03T18:24:12;3.00;99.90
24207;DHT22;12351;52.284;9.160;2023-03-03T18:26:45;3.10;99.90
24207;DHT22;12351;52.284;9.160;2023-03-03T18:29:33;3.10;99.90
24207;DHT22;12351;52.284;9.160;2023-03-03T18:32:24;3.10;99.90
24207;DHT22;12351;52.284;9.160;2023-03-03T18:43:49;3.10;99.90
24207;DHT22;12351;52.284;9.160;2023-03-03T18:46:43;3.20;99.90
24207;DHT22;12351;52.284;9.160;2023-03-03T18:52:21;3.20;99.90
24207;DHT22;12351;52.284;9.160;2023-03-03T19:00:57;3.40;99.90
24207;DHT22;12351;52.284;9.160;2023-03-03T19:18:11;3.50;88.70
24207;DHT22;12351;52.284;9.160;2023-03-03T19:37:57;3.70;44.80
24207;DHT22;12351;52.284;9.160;2023-03-03T19:40:46;3.70;40.50
24207;DHT22;12351;52.284;9.160;2023-03-03T19:46:30;3.70;31.80
24207;DHT22;12351;52.284;9.160;2023-03-03T19:49:21;3.70;38.20
24207;DHT22;12351;52.284;9.160;2023-03-03T20:00:42;3.70;33.50
24207;DHT22;12351;52.284;9.160;2023-03-03T20:09:16;3.70;32.20
24207;DHT22;12351;52.284;9.160;2023-03-03T20:14:59;3.70;19.80
24207;DHT22;12351;52.284;9.160;2023-03-03T20:26:24;3.80;9.30
24207;DHT22;12351;52.284;9.160;2023-03-03T20:40:41;3.80;6.70
24207;DHT22;12351;52.284;9.160;2023-03-03T20:43:32;3.80;9.20
24207;DHT22;12351;52.284;9.160;2023-03-03T20:49:16;3.90;8.30
24207;DHT22;12351;52.284;9.160;2023-03-03T21:00:37;3.90;1.00
24207;DHT22;12351;52.284;9.160;2023-03-03T21:06:16;3.90;1.00
24207;DHT22;12351;52.284;9.160;2023-03-03T21:09:06;3.90;1.00
24207;DHT22;12351;52.284;9.160;2023-03-03T21:11:55;3.90;1.00
24207;DHT22;12351;52.284;9.160;2023-03-03T21:14:57;3.90;1.00
24207;DHT22;12351;52.284;9.160;2023-03-03T21:17:37;3.90;1.00
24207;DHT22;12351;52.284;9.160;2023-03-03T21:20:30;3.90;1.00
24207;DHT22;12351;52.284;9.160;2023-03-03T21:23:18;3.90;1.00
24207;DHT22;12351;52.284;9.160;2023-03-03T21:26:09;3.90;1.00
24207;DHT22;12351;52.284;9.160;2023-03-03T21:29:01;3.90;1.00
24207;DHT22;12351;52.284;9.160;2023-03-03T21:31:52;3.90;1.00
24207;DHT22;12351;52.284;9.160;2023-03-03T21:34:41;3.90;1.00
24207;DHT22;12351;52.284;9.160;2023-03-03T21:43:30;3.90;1.00
24207;DHT22;12351;52.284;9.160;2023-03-03T21:46:04;3.90;1.00
24207;DHT22;12351;52.284;9.160;2023-03-03T21:48:52;3.80;1.00
24207;DHT22;12351;52.284;9.160;2023-03-03T21:51:43;3.90;1.00
24207;DHT22;12351;52.284;9.160;2023-03-03T21:54:31;3.90;1.00
24207;DHT22;12351;52.284;9.160;2023-03-03T21:57:21;3.90;1.00
24207;DHT22;12351;52.284;9.160;2023-03-03T22:00:12;3.90;1.00
24207;DHT22;12351;52.284;9.160;2023-03-03T22:03:02;3.90;1.00
24207;DHT22;12351;52.284;9.160;2023-03-03T22:05:54;3.90;1.00
24207;DHT22;12351;52.284;9.160;2023-03-03T22:08:45;3.90;1.00
24207;DHT22;12351;52.284;9.160;2023-03-03T22:11:35;3.90;1.00
24207;DHT22;12351;52.284;9.160;2023-03-03T22:14:25;3.90;1.00
24207;DHT22;12351;52.284;9.160;2023-03-03T22:17:15;3.90;1.00
24207;DHT22;12351;52.284;9.160;2023-03-03T22:20:07;3.90;1.00
24207;DHT22;12351;52.284;9.160;2023-03-03T22:22:56;3.90;1.00
24207;DHT22;12351;52.284;9.160;2023-03-03T22:25:49;4.00;1.00
24207;DHT22;12351;52.284;9.160;2023-03-03T22:28:37;4.00;1.00
24207;DHT22;12351;52.284;9.160;2023-03-03T22:31:28;4.00;1.00
24207;DHT22;12351;52.284;9.160;2023-03-03T22:34:18;4.00;1.00
24207;DHT22;12351;52.284;9.160;2023-03-03T22:37:08;4.00;1.00
24207;DHT22;12351;52.284;9.160;2023-03-03T22:40:01;4.00;1.00
24207;DHT22;12351;52.284;9.160;2023-03-03T22:42:50;3.90;1.00
24207;DHT22;12351;52.284;9.160;2023-03-03T22:45:42;3.90;1.00
24207;DHT22;12351;52.284;9.160;2023-03-03T22:48:32;3.90;1.00
24207;DHT22;12351;52.284;9.160;2023-03-03T22:51:21;4.00;1.00
24207;DHT22;12351;52.284;9.160;2023-03-03T22:54:16;4.00;1.00
24207;DHT22;12351;52.284;9.160;2023-03-03T22:57:05;3.90;1.00
24207;DHT22;12351;52.284;9.160;2023-03-03T22:59:57;3.90;1.00
24207;DHT22;12351;52.284;9.160;2023-03-03T23:02:48;3.80;1.00
24207;DHT22;12351;52.284;9.160;2023-03-03T23:05:38;3.90;1.00
24207;DHT22;12351;52.284;9.160;2023-03-03T23:08:29;3.90;1.00
24207;DHT22;12351;52.284;9.160;2023-03-03T23:11:18;3.80;1.00
24207;DHT22;12351;52.284;9.160;2023-03-03T23:14:11;3.80;1.00
24207;DHT22;12351;52.284;9.160;2023-03-03T23:17:01;3.80;1.00
24207;DHT22;12351;52.284;9.160;2023-03-03T23:19:51;3.80;1.00
24207;DHT22;12351;52.284;9.160;2023-03-03T23:22:41;3.80;1.00
24207;DHT22;12351;52.284;9.160;2023-03-03T23:25:30;3.80;1.00
24207;DHT22;12351;52.284;9.160;2023-03-03T23:28:20;3.70;1.00
24207;DHT22;12351;52.284;9.160;2023-03-03T23:31:11;3.80;1.00
24207;DHT22;12351;52.284;9.160;2023-03-03T23:33:59;3.80;1.00
24207;DHT22;12351;52.284;9.160;2023-03-03T23:36:50;3.80;1.00
24207;DHT22;12351;52.284;9.160;2023-03-03T23:39:39;3.80;1.00
24207;DHT22;12351;52.284;9.160;2023-03-03T23:42:28;3.80;1.00
24207;DHT22;12351;52.284;9.160;2023-03-03T23:45:18;3.80;1.00
24207;DHT22;12351;52.284;9.160;2023-03-03T23:48:07;3.80;1.00
24207;DHT22;12351;52.284;9.160;2023-03-03T23:50:58;3.80;1.00
24207;DHT22;12351;52.284;9.160;2023-03-03T23:53:50;3.80;1.00
24207;DHT22;12351;52.284;9.160;2023-03-03T23:56:38;3.70;1.00
24207;DHT22;12351;52.284;9.160;2023-03-03T23:59:28;3.80;1.00
